Time;durP1;ratioP1;P1;durP2;ratioP2;P2;SDS_P1;SDS_P2;PMS_P1;PMS_P2;Temp;Humidity;BMP_temperature;BMP_pressure;BME280_temperature;BME280_humidity;BME280_pressure;Samples;Min_cycle;Max_cycle;Signal;HPM_P1;HPM_P2
2021/03/28 00:01:31;;;;;;;7.10;1.98;;;;;;;4.52;62.53;100302.25;5051932;28;20053;-81
2021/03/28 00:04:00;;;;;;;7.30;1.70;;;;;;;4.38;63.91;100297.91;5052755;28;20057;-80
2021/03/28 00:06:30;;;;;;;9.02;1.83;;;;;;;4.43;64.12;100309.19;5052470;28;20106;-79
2021/03/28 00:09:07;;;;;;;;;;;;;;;4.57;63.44;100333.22;5052929;28;20052;-80
2021/03/28 00:11:37;;;;;;;7.88;1.70;;;;;;;4.45;63.35;100304.53;5035370;28;19921;-79
2021/03/28 00:14:04;;;;;;;7.25;1.88;;;;;;;4.61;63.81;100339.25;5039096;28;20408;-80
2021/03/28 00:16:43;;;;;;;8.23;1.98;;;;;;;4.54;62.56;100308.38;5052279;28;20048;-80
2021/03/28 00:19:22;;;;;;;3.63;1.77;;;;;;;4.62;63.75;100330.16;5052480;28;20489;-79
2021/03/28 00:22:07;;;;;;;6.72;2.47;;;;;;;4.63;63.55;100323.81;5043507;28;20099;-79
2021/03/28 00:24:37;;;;;;;5.82;1.65;;;;;;;4.63;63.43;100328.34;5048780;28;20409;-80
2021/03/28 00:27:29;;;;;;;8.48;2.72;;;;;;;4.59;62.96;100316.94;5110390;27;20370;-80
2021/03/28 00:29:59;;;;;;;4.85;2.03;;;;;;;4.59;64.80;100325.91;5111045;28;20089;-81
2021/03/28 00:32:41;;;;;;;7.85;1.60;;;;;;;4.66;63.76;100334.34;5111178;28;20059;-80
2021/03/28 00:35:14;;;;;;;5.80;1.77;;;;;;;4.61;64.17;100333.84;5110249;28;20051;-81
2021/03/28 00:37:43;;;;;;;7.70;2.03;;;;;;;4.52;63.03;100323.78;5110474;28;20063;-81
2021/03/28 00:40:21;;;;;;;5.95;1.70;;;;;;;4.54;63.63;100328.06;5110766;28;20653;-81
2021/03/28 00:42:52;;;;;;;3.22;1.52;;;;;;;4.40;64.26;100310.28;5109709;28;20052;-81
2021/03/28 00:45:23;;;;;;;5.55;1.70;;;;;;;4.41;64.39;100328.16;5106277;28;20051;-81
2021/03/28 00:48:06;;;;;;;6.43;1.17;;;;;;;4.30;64.39;100314.63;5100557;28;20164;-81
2021/03/28 00:50:36;;;;;;;5.10;1.75;;;;;;;4.31;64.30;100326.28;5109813;28;20411;-81
2021/03/28 00:53:05;;;;;;;7.65;1.85;;;;;;;4.16;64.97;100333.69;5110287;28;20492;-80
2021/03/28 00:55:36;;;;;;;8.98;3.83;;;;;;;3.96;65.28;100309.13;5109946;28;20059;-80
2021/03/28 00:58:06;;;;;;;;;;;;;;;4.10;65.04;100331.47;5110102;28;20056;-80
2021/03/28 01:00:57;;;;;;;10.15;3.08;;;;;;;3.99;65.38;100332.22;5110049;28;19920;-80
2021/03/28 01:03:35;;;;;;;16.00;2.08;;;;;;;3.86;66.00;100329.59;5110127;28;20168;-80
2021/03/28 01:06:16;;;;;;;3.97;1.52;;;;;;;3.56;66.71;100312.06;5108897;28;20139;-80
2021/03/28 01:08:53;;;;;;;4.40;1.80;;;;;;;3.48;67.19;100319.84;5108421;28;20058;-81
2021/03/28 01:11:35;;;;;;;11.27;2.35;;;;;;;3.36;67.05;100303.59;5109480;28;20043;-80
2021/03/28 01:14:20;;;;;;;4.53;1.60;;;;;;;3.39;67.47;100324.03;5110156;28;20544;-81
2021/03/28 01:17:19;;;;;;;4.75;1.85;;;;;;;3.22;67.05;100295.66;5114145;28;20056;-82
2021/03/28 01:20:00;;;;;;;9.82;2.22;;;;;;;3.44;67.16;100323.69;5089296;28;20055;-81
2021/03/28 01:22:34;;;;;;;11.07;2.42;;;;;;;3.30;66.75;100297.81;5101073;28;20047;-80
2021/03/28 01:25:14;;;;;;;9.85;2.08;;;;;;;3.43;66.99;100322.81;5103148;28;20094;-81
2021/03/28 01:27:49;;;;;;;4.78;1.50;;;;;;;3.47;66.04;100318.94;5093567;28;20060;-81
2021/03/28 01:30:23;;;;;;;6.25;2.00;;;;;;;3.49;66.37;100316.16;5103991;28;20044;-81
2021/03/28 01:33:00;;;;;;;9.27;1.83;;;;;;;3.34;66.40;100310.03;5109114;28;20048;-80
2021/03/28 01:35:36;;;;;;;6.68;1.70;;;;;;;3.32;66.54;100285.97;5095598;28;20095;-81
2021/03/28 01:38:09;;;;;;;10.63;2.35;;;;;;;3.26;66.90;100302.53;5089383;28;20048;-79
2021/03/28 01:40:44;;;;;;;5.10;1.65;;;;;;;3.40;66.74;100293.47;5095363;28;20051;-79
2021/03/28 01:43:21;;;;;;;10.27;1.65;;;;;;;3.43;68.41;100309.38;5083787;28;20064;-80
2021/03/28 01:45:57;;;;;;;8.32;2.05;;;;;;;3.25;68.87;100322.34;5085620;28;20072;-81
2021/03/28 01:48:34;;;;;;;5.65;2.08;;;;;;;3.23;68.54;100318.88;5092714;28;20056;-81
2021/03/28 01:54:11;;;;;;;4.93;1.75;;;;;;;3.30;68.10;100319.31;5093699;28;20082;-81
2021/03/28 01:56:52;;;;;;;2.83;1.42;;;;;;;3.40;69.46;100347.25;5074412;28;20052;-81
2021/03/28 01:59:35;;;;;;;5.68;2.30;;;;;;;3.29;69.74;100331.03;5086426;28;20039;-80
2021/03/28 02:02:18;;;;;;;4.95;1.58;;;;;;;3.36;68.57;100317.03;5094799;28;20497;-81
2021/03/28 02:05:11;;;;;;;8.00;1.50;;;;;;;3.38;69.19;100311.56;5091131;28;20495;-81
2021/03/28 02:11:01;;;;;;;11.10;1.98;;;;;;;3.40;70.71;100316.81;5094856;28;20131;-81
2021/03/28 02:13:40;;;;;;;3.42;1.77;;;;;;;3.50;69.76;100336.69;5095381;28;20056;-81
2021/03/28 02:16:20;;;;;;;5.80;2.10;;;;;;;3.56;69.80;100332.72;5094213;28;20056;-81
2021/03/28 02:18:54;;;;;;;7.45;1.83;;;;;;;3.41;70.39;100314.00;5093891;28;20079;-80
2021/03/28 02:21:34;;;;;;;2.15;1.30;;;;;;;3.57;70.71;100323.66;5094331;28;20105;-80
2021/03/28 02:24:22;;;;;;;7.65;1.77;;;;;;;3.67;69.67;100316.63;5094590;28;20066;-81
2021/03/28 02:27:02;;;;;;;9.32;1.55;;;;;;;3.61;70.28;100307.19;5077825;28;20043;-80
2021/03/28 02:29:42;;;;;;;6.13;2.20;;;;;;;3.58;70.23;100291.28;5093978;28;20048;-81
2021/03/28 02:32:43;;;;;;;1.73;1.48;;;;;;;3.68;69.90;100311.16;5094484;28;20072;-80
2021/03/28 02:35:35;;;;;;;5.25;1.77;;;;;;;3.82;69.73;100310.13;5094126;28;20056;-81
2021/03/28 02:38:12;;;;;;;9.90;1.83;;;;;;;3.91;68.96;100311.28;5094332;28;20074;-80
2021/03/28 02:40:45;;;;;;;5.30;2.03;;;;;;;3.90;68.81;100304.19;5094531;28;20047;-81
2021/03/28 02:43:27;;;;;;;6.20;1.67;;;;;;;3.79;69.75;100287.97;5093968;28;20113;-81
2021/03/28 02:46:09;;;;;;;4.80;1.70;;;;;;;3.85;69.64;100309.03;5093433;28;20056;-81
2021/03/28 02:48:56;;;;;;;8.65;2.10;;;;;;;3.90;70.13;100309.59;5093241;28;20048;-81
2021/03/28 02:51:53;;;;;;;6.82;1.75;;;;;;;3.88;70.33;100298.94;5094288;28;20059;-81
2021/03/28 02:54:52;;;;;;;8.55;3.55;;;;;;;3.99;69.83;100311.59;5072860;28;20047;-80
2021/03/28 02:57:40;;;;;;;3.50;1.42;;;;;;;3.97;70.98;100305.44;5085963;28;20047;-81
2021/03/28 03:00:15;;;;;;;4.65;1.65;;;;;;;4.00;70.73;100309.75;5093855;28;20051;-80
2021/03/28 03:03:11;;;;;;;6.40;1.85;;;;;;;4.01;69.50;100308.78;5093939;28;20051;-81
2021/03/28 03:06:05;;;;;;;2.85;1.40;;;;;;;4.06;70.22;100323.63;5050473;28;20472;-81
2021/03/28 03:08:38;;;;;;;4.40;1.23;;;;;;;4.05;69.88;100321.88;5093799;28;20040;-81
2021/03/28 03:11:22;;;;;;;4.53;1.52;;;;;;;4.02;69.55;100310.47;5084943;28;20653;-81
2021/03/28 03:14:05;;;;;;;4.43;1.70;;;;;;;4.06;68.99;100318.22;5093819;28;20499;-81
2021/03/28 03:16:56;;;;;;;6.32;1.60;;;;;;;4.04;68.99;100301.31;5092993;28;20060;-81
2021/03/28 03:20:01;;;;;;;8.63;1.85;;;;;;;4.12;68.23;100311.50;5092701;28;20055;-81
2021/03/28 03:23:19;;;;;;;5.95;1.83;;;;;;;4.24;68.18;100315.97;5090009;28;20059;-81
2021/03/28 03:26:07;;;;;;;13.10;4.15;;;;;;;4.29;67.80;100312.06;5093023;28;20047;-81
2021/03/28 03:29:16;;;;;;;4.75;1.52;;;;;;;4.24;66.98;100291.72;5092948;28;20043;-80
2021/03/28 03:32:04;;;;;;;8.07;1.90;;;;;;;4.32;67.31;100325.28;5093297;28;20048;-81
2021/03/28 03:34:46;;;;;;;2.15;1.33;;;;;;;4.22;68.46;100326.00;5093758;28;20466;-81
2021/03/28 03:37:51;;;;;;;4.82;1.50;;;;;;;4.14;68.88;100317.66;5092081;28;20498;-81
2021/03/28 03:40:45;;;;;;;4.55;1.50;;;;;;;4.23;67.90;100327.72;5071921;28;20825;-81
2021/03/28 03:43:56;;;;;;;6.50;1.92;;;;;;;4.43;66.93;100336.13;5092837;28;20056;-80
2021/03/28 03:46:40;;;;;;;21.33;2.78;;;;;;;4.21;68.25;100312.66;5054546;28;20114;-81
2021/03/28 03:49:42;;;;;;;6.28;1.60;;;;;;;4.23;68.08;100327.72;5092413;28;20047;-81
2021/03/28 03:52:50;;;;;;;5.60;1.38;;;;;;;4.12;69.75;100324.97;5062668;28;20056;-81
2021/03/28 03:55:23;;;;;;;5.00;1.92;;;;;;;4.12;70.22;100341.09;5058322;28;20395;-81
2021/03/28 03:57:55;;;;;;;6.10;1.52;;;;;;;4.06;70.03;100333.50;5093076;28;20081;-81
2021/03/28 04:00:27;;;;;;;6.60;1.73;;;;;;;4.12;70.07;100333.03;5092536;28;20048;-81
2021/03/28 04:03:05;;;;;;;9.73;1.67;;;;;;;4.29;69.77;100352.44;5092750;28;20048;-81
2021/03/28 04:05:54;;;;;;;3.30;1.60;;;;;;;4.28;69.46;100338.13;5090855;28;20056;-80
2021/03/28 04:08:43;;;;;;;5.13;1.65;;;;;;;4.19;69.05;100334.31;5091756;28;20131;-80
2021/03/28 04:11:27;;;;;;;5.03;1.90;;;;;;;4.22;70.09;100325.16;5092682;28;20073;-80
2021/03/28 04:14:08;;;;;;;9.30;1.83;;;;;;;4.16;70.53;100328.31;5092273;28;20063;-81
2021/03/28 04:16:45;;;;;;;7.43;1.80;;;;;;;4.11;69.71;100317.00;5093111;28;20051;-81
2021/03/28 04:19:52;;;;;;;2.58;1.35;;;;;;;4.23;67.85;100346.56;5091603;28;20495;-81
2021/03/28 04:22:57;;;;;;;3.08;1.73;;;;;;;4.27;68.14;100336.41;5062165;28;20056;-80
2021/03/28 04:25:33;;;;;;;6.10;2.00;;;;;;;4.23;68.19;100329.53;5091850;28;20501;-81
2021/03/28 04:28:18;;;;;;;8.00;1.80;;;;;;;4.23;68.78;100338.50;5092742;28;20051;-81
2021/03/28 04:31:00;;;;;;;5.93;1.67;;;;;;;4.44;67.99;100340.50;5092195;28;20055;-81
2021/03/28 04:33:38;;;;;;;7.07;1.58;;;;;;;4.37;67.55;100320.44;5092400;28;20097;-79
2021/03/28 04:36:19;;;;;;;6.65;1.83;;;;;;;4.40;67.68;100326.44;5091434;28;20113;-79
2021/03/28 04:39:04;;;;;;;6.80;1.63;;;;;;;4.29;67.63;100318.34;5092491;28;20044;-79
2021/03/28 04:42:03;;;;;;;12.23;1.90;;;;;;;4.23;67.96;100325.03;5092752;28;20142;-80
2021/03/28 04:45:03;;;;;;;9.13;2.75;;;;;;;4.22;68.86;100357.44;5091625;28;20048;-80
2021/03/28 04:48:06;;;;;;;9.05;2.25;;;;;;;4.08;68.05;100345.88;5092099;28;20044;-80
2021/03/28 04:50:53;;;;;;;7.32;2.80;;;;;;;4.23;68.35;100367.22;5056108;28;20049;-80
2021/03/28 04:54:13;;;;;;;5.95;2.45;;;;;;;4.14;67.96;100346.38;5092173;28;20549;-80
2021/03/28 04:57:14;;;;;;;14.82;3.33;;;;;;;4.23;67.77;100353.75;5092749;28;20057;-80
2021/03/28 05:00:25;;;;;;;7.15;1.77;;;;;;;4.31;67.96;100351.38;5092283;28;20051;-80
2021/03/28 05:03:25;;;;;;;5.90;2.35;;;;;;;4.44;67.70;100362.06;5063284;28;20044;-79
2021/03/28 05:06:11;;;;;;;11.65;1.92;;;;;;;4.28;68.28;100339.97;5091635;28;20044;-80
2021/03/28 05:08:55;;;;;;;8.30;2.10;;;;;;;4.32;68.78;100352.22;5091835;28;20419;-80
2021/03/28 05:12:03;;;;;;;6.20;2.10;;;;;;;4.42;68.10;100358.63;5092229;28;20059;-80
2021/03/28 05:15:26;;;;;;;5.70;2.20;;;;;;;4.36;67.99;100337.56;5095435;28;20064;-80
2021/03/28 05:18:30;;;;;;;7.15;1.90;;;;;;;4.33;67.73;100346.72;5096033;28;20052;-80
2021/03/28 05:21:30;;;;;;;6.57;1.50;;;;;;;4.52;66.66;100361.50;5094196;28;20055;-80
2021/03/28 05:24:19;;;;;;;6.32;1.75;;;;;;;4.28;67.86;100358.81;5095921;28;20052;-80
2021/03/28 05:27:10;;;;;;;5.78;1.63;;;;;;;4.17;68.16;100360.47;5075672;28;20105;-80
2021/03/28 05:30:05;;;;;;;8.45;1.60;;;;;;;3.97;67.75;100335.03;5075326;28;20053;-80
2021/03/28 05:33:15;;;;;;;8.38;1.75;;;;;;;4.04;67.14;100333.63;5095500;28;20060;-80
2021/03/28 05:35:57;;;;;;;3.05;1.67;;;;;;;4.03;67.52;100353.41;5079744;28;20048;-80
2021/03/28 05:39:06;;;;;;;3.97;2.00;;;;;;;3.95;67.71;100357.66;5095739;28;20060;-80
2021/03/28 05:42:00;;;;;;;8.57;2.45;;;;;;;3.97;67.57;100367.31;5081156;28;20048;-80
2021/03/28 05:45:02;;;;;;;3.50;1.77;;;;;;;3.81;67.96;100351.47;5094634;28;20048;-79
2021/03/28 05:47:46;;;;;;;7.45;1.75;;;;;;;3.79;68.33;100374.06;5082109;28;20051;-80
2021/03/28 05:50:24;;;;;;;8.07;1.70;;;;;;;3.86;68.74;100386.09;5095372;28;20048;-80
2021/03/28 05:53:42;;;;;;;9.70;2.30;;;;;;;3.85;68.94;100371.81;5095075;28;20048;-80
2021/03/28 05:56:47;;;;;;;6.45;2.72;;;;;;;3.94;68.73;100389.06;5094309;28;20048;-80
2021/03/28 05:59:49;;;;;;;5.60;2.53;;;;;;;3.96;68.44;100397.03;5065313;28;20063;-80
2021/03/28 06:02:57;;;;;;;3.97;2.28;;;;;;;4.07;69.29;100391.75;5094993;28;20059;-80
2021/03/28 06:05:56;;;;;;;9.25;3.97;;;;;;;3.97;68.96;100371.84;5086216;28;20051;-80
2021/03/28 06:09:04;;;;;;;2.65;1.67;;;;;;;4.33;68.21;100397.03;5068530;28;20403;-80
2021/03/28 06:12:10;;;;;;;3.17;1.65;;;;;;;4.75;67.29;100389.34;5094773;28;20452;-80
2021/03/28 06:14:48;;;;;;;5.15;2.38;;;;;;;4.76;65.79;100383.00;5094286;28;20051;-80
2021/03/28 06:17:24;;;;;;;7.85;2.22;;;;;;;5.09;65.27;100406.47;5094291;28;20491;-81
2021/03/28 06:20:23;;;;;;;9.52;2.10;;;;;;;5.19;64.31;100386.88;5093971;28;20052;-80
2021/03/28 06:23:26;;;;;;;6.85;2.47;;;;;;;5.56;63.86;100402.88;5091233;28;20400;-80
2021/03/28 06:26:26;;;;;;;10.75;1.92;;;;;;;5.62;63.12;100395.13;5073384;28;20044;-80
2021/03/28 06:29:28;;;;;;;10.27;1.98;;;;;;;5.65;64.32;100399.44;5074402;28;20060;-80
2021/03/28 06:32:42;;;;;;;3.30;1.70;;;;;;;5.99;64.44;100394.91;5079904;28;20097;-80
2021/03/28 06:35:33;;;;;;;5.35;1.60;;;;;;;6.29;64.23;100400.59;5092468;28;20055;-80
2021/03/28 06:38:22;;;;;;;5.40;2.08;;;;;;;6.60;61.72;100406.16;5093418;28;20048;-80
2021/03/28 06:41:03;;;;;;;8.68;3.78;;;;;;;7.12;59.78;100406.25;5094003;28;20056;-82
2021/03/28 06:43:53;;;;;;;4.68;2.28;;;;;;;7.33;56.90;100390.00;5093789;28;20089;-79
2021/03/28 06:47:07;;;;;;;5.65;1.60;;;;;;;7.42;57.25;100416.25;5065895;28;20048;-82
2021/03/28 06:49:57;;;;;;;5.45;1.83;;;;;;;7.57;57.01;100420.34;5093441;28;20052;-80
2021/03/28 06:52:34;;;;;;;;;;;;;;;7.80;56.80;100428.28;5095088;28;20044;-81
2021/03/28 06:55:24;;;;;;;4.15;1.85;;;;;;;7.91;56.93;100416.50;5093692;28;19927;-80
2021/03/28 06:58:39;;;;;;;5.25;2.00;;;;;;;8.18;56.27;100423.97;5091099;28;20579;-81
2021/03/28 07:01:58;;;;;;;4.43;1.45;;;;;;;7.93;54.01;100404.53;5084545;28;20043;-81
2021/03/28 07:05:07;;;;;;;7.07;1.67;;;;;;;7.86;55.64;100416.03;5073275;28;20052;-81
2021/03/28 07:08:13;;;;;;;8.75;1.77;;;;;;;7.79;55.65;100416.56;5090391;28;20491;-80
2021/03/28 07:10:55;;;;;;;8.48;1.67;;;;;;;7.58;55.68;100421.19;5093980;28;20504;-80
2021/03/28 07:13:35;;;;;;;8.48;1.77;;;;;;;7.49;55.91;100430.97;5093868;28;20051;-80
2021/03/28 07:16:16;;;;;;;4.00;1.70;;;;;;;7.51;57.05;100426.28;5093778;28;20048;-81
2021/03/28 07:19:21;;;;;;;6.10;1.67;;;;;;;7.53;56.68;100424.31;5093168;28;20043;-80
2021/03/28 07:22:27;;;;;;;12.63;2.67;;;;;;;7.56;56.54;100424.03;5092683;28;20040;-81
2021/03/28 07:25:30;;;;;;;8.43;1.92;;;;;;;7.74;56.11;100445.91;5089847;28;20496;-82
2021/03/28 07:28:56;;;;;;;5.75;1.70;;;;;;;7.91;55.51;100427.31;5087031;28;20515;-81
2021/03/28 07:31:49;;;;;;;7.88;1.80;;;;;;;8.08;54.41;100437.47;5087406;28;20094;-81
2021/03/28 07:35:19;;;;;;;6.80;1.42;;;;;;;8.19;55.24;100425.72;5092114;28;20056;-81
2021/03/28 07:38:22;;;;;;;6.93;1.65;;;;;;;8.55;55.34;100431.50;5064739;28;20047;-81
2021/03/28 07:41:12;;;;;;;4.38;2.00;;;;;;;8.45;54.03;100412.50;5090289;28;20101;-81
2021/03/28 07:44:29;;;;;;;6.70;1.42;;;;;;;8.43;53.96;100413.59;5091060;28;20052;-81
2021/03/28 07:47:31;;;;;;;8.38;1.77;;;;;;;8.45;54.41;100408.97;5071669;28;20044;-82
2021/03/28 07:50:33;;;;;;;4.18;1.67;;;;;;;8.25;53.77;100411.59;5083601;28;20040;-81
2021/03/28 07:53:44;;;;;;;6.50;2.00;;;;;;;8.41;54.73;100437.28;5093723;28;20143;-81
2021/03/28 07:56:37;;;;;;;6.28;1.90;;;;;;;8.41;53.96;100453.56;5081788;28;20474;-81
2021/03/28 07:59:14;;;;;;;6.75;1.77;;;;;;;8.31;53.69;100440.00;5093438;28;20051;-82
2021/03/28 08:02:00;;;;;;;5.47;1.80;;;;;;;8.36;52.58;100462.09;5092989;28;20063;-82
2021/03/28 08:07:55;;;;;;;8.88;2.35;;;;;;;8.78;51.22;100461.06;5081052;28;20130;-83
2021/03/28 08:10:32;;;;;;;5.78;1.80;;;;;;;8.76;52.49;100463.91;5093338;28;20048;-83
2021/03/28 08:13:38;;;;;;;10.65;2.30;;;;;;;8.57;52.34;100472.88;5092782;28;20506;-83
2021/03/28 08:16:27;;;;;;;6.18;2.03;;;;;;;8.13;53.08;100464.19;5092273;28;20052;-82
2021/03/28 08:19:25;;;;;;;4.15;1.98;;;;;;;8.00;53.28;100474.38;5089662;28;20060;-82
2021/03/28 08:22:04;;;;;;;7.72;1.73;;;;;;;7.93;54.04;100465.94;5092910;28;20040;-82
2021/03/28 08:24:56;;;;;;;6.75;1.75;;;;;;;8.41;55.51;100486.91;5091962;28;20048;-81
2021/03/28 08:27:54;;;;;;;10.02;2.10;;;;;;;8.81;52.75;100483.31;5092293;28;20048;-81
2021/03/28 08:30:36;;;;;;;9.40;2.13;;;;;;;8.89;51.99;100484.47;5092307;28;20062;-82
2021/03/28 08:33:39;;;;;;;5.72;1.92;;;;;;;9.25;53.37;100480.19;5075486;28;20047;-82
2021/03/28 08:36:54;;;;;;;8.00;1.73;;;;;;;9.00;50.65;100473.47;5093009;28;20051;-81
2021/03/28 08:39:39;;;;;;;5.30;1.83;;;;;;;8.91;53.23;100482.47;5025392;28;20060;-82
2021/03/28 08:42:32;;;;;;;6.22;1.70;;;;;;;8.49;51.97;100480.81;5093116;28;20449;-82
2021/03/28 08:45:25;;;;;;;9.88;1.52;;;;;;;8.77;52.49;100484.59;5091946;28;20492;-82
2021/03/28 08:48:36;;;;;;;12.52;2.33;;;;;;;8.92;52.21;100482.31;5093940;28;20133;-82
2021/03/28 08:51:23;;;;;;;;;;;;;;;9.36;53.19;100490.91;5076599;28;20060;-82
2021/03/28 08:54:05;;;;;;;4.88;2.00;;;;;;;9.43;52.57;100474.88;5094311;28;19924;-82
2021/03/28 08:57:13;;;;;;;4.57;1.77;;;;;;;9.51;50.04;100469.56;5096156;28;20109;-82
2021/03/28 08:59:54;;;;;;;11.45;2.05;;;;;;;9.51;51.86;100472.28;5048404;28;20050;-83
2021/03/28 09:02:47;;;;;;;5.65;1.80;;;;;;;9.43;50.89;100480.31;5096926;28;20048;-82
2021/03/28 09:05:37;;;;;;;8.80;2.47;;;;;;;9.42;49.96;100459.59;5096849;28;20055;-83
2021/03/28 09:08:09;;;;;;;14.98;1.85;;;;;;;9.87;51.46;100474.34;5096977;28;20142;-82
2021/03/28 09:11:08;;;;;;;6.82;1.80;;;;;;;10.07;51.33;100462.41;5096415;28;20055;-83
2021/03/28 09:13:47;;;;;;;4.28;1.55;;;;;;;9.91;50.42;100475.75;5087126;28;20047;-82
2021/03/28 09:16:29;;;;;;;5.72;1.63;;;;;;;9.95;49.40;100477.19;5095096;28;20056;-82
2021/03/28 09:19:14;;;;;;;5.38;1.25;;;;;;;9.89;48.70;100469.59;5096902;28;20131;-82
2021/03/28 09:22:03;;;;;;;6.60;1.95;;;;;;;9.78;49.15;100467.09;5076469;28;20054;-82
2021/03/28 09:24:53;;;;;;;6.10;1.75;;;;;;;9.79;49.00;100460.66;5088211;28;20079;-82
2021/03/28 09:27:38;;;;;;;7.45;1.77;;;;;;;9.91;48.64;100467.59;5094454;28;20048;-82
2021/03/28 09:30:25;;;;;;;5.18;1.88;;;;;;;10.15;49.15;100453.50;5075997;28;20056;-83
2021/03/28 09:33:14;;;;;;;6.20;1.75;;;;;;;10.01;49.54;100441.25;5086348;28;20109;-82
2021/03/28 09:36:21;;;;;;;6.30;1.55;;;;;;;10.34;49.18;100451.69;5075246;28;20109;-82
2021/03/28 09:39:22;;;;;;;7.85;1.92;;;;;;;10.58;48.72;100437.53;5112323;28;20159;-82
2021/03/28 09:42:16;;;;;;;9.88;4.13;;;;;;;10.79;49.07;100443.53;5068726;28;20403;-82
2021/03/28 09:45:31;;;;;;;6.20;1.70;;;;;;;10.83;46.86;100421.47;5095227;28;20055;-82
2021/03/28 09:48:21;;;;;;;4.35;1.67;;;;;;;11.14;47.90;100440.94;5075327;28;20052;-82
2021/03/28 09:50:59;;;;;;;7.93;1.30;;;;;;;11.06;44.91;100432.72;5086164;28;20048;-82
2021/03/28 09:53:45;;;;;;;10.73;1.63;;;;;;;10.97;43.77;100421.78;5095621;28;20093;-82
2021/03/28 09:56:50;;;;;;;7.63;1.80;;;;;;;11.06;44.68;100439.00;5094964;28;20052;-82
2021/03/28 09:59:38;;;;;;;3.90;1.40;;;;;;;11.31;44.01;100436.50;5093284;28;20133;-82
2021/03/28 10:02:26;;;;;;;6.28;1.58;;;;;;;11.40;44.23;100410.19;5105429;28;20055;-82
2021/03/28 10:05:05;;;;;;;2.05;1.25;;;;;;;11.46;44.32;100429.44;5094859;28;20048;-81
2021/03/28 10:07:42;;;;;;;7.57;2.17;;;;;;;11.66;42.98;100426.50;5094068;28;20051;-81
2021/03/28 10:10:22;;;;;;;2.50;1.13;;;;;;;11.72;44.35;100423.13;5094706;28;20105;-82
2021/03/28 10:13:24;;;;;;;6.50;2.08;;;;;;;11.73;44.42;100403.06;5093950;28;20054;-81
2021/03/28 10:16:00;;;;;;;7.68;1.63;;;;;;;11.84;43.71;100408.22;5073254;28;20060;-81
2021/03/28 10:18:50;;;;;;;6.97;1.95;;;;;;;11.83;44.48;100427.44;5087790;28;20055;-81
2021/03/28 10:21:28;;;;;;;;;;;;;;;11.71;37.91;100421.41;5061664;28;20056;-82
2021/03/28 10:24:23;;;;;;;6.97;1.50;;;;;;;11.93;39.01;100411.03;5085639;28;19962;-82
2021/03/28 10:27:16;;;;;;;10.65;1.95;;;;;;;11.87;43.06;100405.16;5073583;28;20047;-82
2021/03/28 10:29:52;;;;;;;3.95;1.60;;;;;;;11.66;41.29;100397.38;5073876;28;20057;-82
2021/03/28 10:32:32;;;;;;;5.40;1.20;;;;;;;11.96;43.48;100395.19;5092572;28;20052;-82
2021/03/28 10:35:17;;;;;;;5.15;1.40;;;;;;;12.12;42.45;100402.59;5084846;28;20781;-82
2021/03/28 10:38:04;;;;;;;9.23;1.92;;;;;;;12.10;41.09;100401.03;5093788;28;20434;-82
2021/03/28 10:40:37;;;;;;;8.05;1.60;;;;;;;11.89;40.87;100387.78;5093827;28;20407;-82
2021/03/28 10:43:19;;;;;;;5.57;1.35;;;;;;;12.01;41.09;100402.88;5093523;28;20040;-81
2021/03/28 10:46:28;;;;;;;7.90;1.65;;;;;;;12.08;37.05;100384.00;5093095;28;20399;-81
2021/03/28 10:49:24;;;;;;;9.68;1.75;;;;;;;12.06;40.34;100391.47;5093748;28;20055;-81
2021/03/28 10:52:32;;;;;;;6.82;1.70;;;;;;;12.31;39.84;100374.16;5093924;28;20044;-80
2021/03/28 10:55:35;;;;;;;6.35;1.92;;;;;;;12.25;39.97;100365.81;5092808;28;20056;-80
2021/03/28 10:58:52;;;;;;;7.95;1.63;;;;;;;12.47;39.30;100384.28;5093993;28;20508;-81
2021/03/28 11:02:01;;;;;;;4.05;1.35;;;;;;;12.39;39.37;100360.56;5073289;28;20063;-80
2021/03/28 11:04:50;;;;;;;6.82;1.42;;;;;;;12.31;37.59;100363.25;5078311;28;20046;-82
2021/03/28 11:07:57;;;;;;;5.70;1.75;;;;;;;12.46;38.65;100373.53;5094393;28;20044;-81
2021/03/28 11:11:05;;;;;;;7.05;1.52;;;;;;;12.81;41.25;100366.06;5064833;28;20056;-81
2021/03/28 11:14:03;;;;;;;7.57;1.88;;;;;;;12.93;38.47;100360.09;5092410;28;20151;-80
2021/03/28 11:16:42;;;;;;;9.98;1.30;;;;;;;12.81;35.80;100346.94;5063516;28;20136;-81
2021/03/28 11:22:45;;;;;;;5.90;1.58;;;;;;;12.92;37.92;100350.19;5088167;28;20488;-81
2021/03/28 11:25:21;;;;;;;10.63;1.80;;;;;;;13.17;36.47;100336.53;5086171;28;20083;-81
2021/03/28 11:28:15;;;;;;;4.43;1.02;;;;;;;13.26;37.37;100316.38;5092369;28;20052;-81
2021/03/28 11:30:44;;;;;;;6.63;1.25;;;;;;;13.58;34.94;100335.63;5072024;28;20052;-81
2021/03/28 11:33:21;;;;;;;4.57;1.50;;;;;;;13.36;34.97;100318.09;5090563;28;20048;-81
2021/03/28 11:36:05;;;;;;;5.72;1.30;;;;;;;13.65;35.89;100313.88;5078490;28;20052;-81
2021/03/28 11:38:40;;;;;;;2.47;1.00;;;;;;;13.74;35.98;100326.50;5070989;28;20044;-81
2021/03/28 11:41:46;;;;;;;4.72;1.35;;;;;;;13.77;34.14;100316.03;5072870;28;20288;-81
2021/03/28 11:44:28;;;;;;;4.82;1.10;;;;;;;13.76;34.27;100322.56;5072423;28;20052;-81
2021/03/28 11:46:59;;;;;;;3.45;1.40;;;;;;;13.58;34.90;100295.47;5088698;28;20121;-80
2021/03/28 11:49:32;;;;;;;2.50;1.13;;;;;;;13.52;33.72;100300.78;5078198;28;20048;-81
2021/03/28 11:52:18;;;;;;;3.40;1.40;;;;;;;13.70;34.04;100312.34;5092234;28;20063;-81
2021/03/28 11:55:12;;;;;;;4.43;1.30;;;;;;;13.77;35.48;100305.09;5077738;28;20067;-81
2021/03/28 11:57:40;;;;;;;5.03;1.35;;;;;;;14.10;35.07;100302.19;5079829;28;20178;-81
2021/03/28 12:00:40;;;;;;;8.40;1.67;;;;;;;14.12;36.36;100282.88;5093062;28;20048;-81
2021/03/28 12:03:26;;;;;;;5.55;1.10;;;;;;;14.31;34.47;100289.78;5026473;28;20057;-81
2021/03/28 12:05:56;;;;;;;2.58;1.10;;;;;;;14.50;35.53;100288.44;5087837;28;20105;-81
2021/03/28 12:08:26;;;;;;;3.88;1.17;;;;;;;14.44;34.98;100278.25;5092212;28;20476;-81
2021/03/28 12:10:57;;;;;;;3.88;1.00;;;;;;;14.56;33.01;100295.91;5072534;28;20076;-81
2021/03/28 12:13:45;;;;;;;4.32;1.30;;;;;;;14.62;34.34;100277.97;5076012;28;20063;-81
2021/03/28 12:16:12;;;;;;;3.72;1.20;;;;;;;14.34;32.09;100279.31;5090877;28;20522;-81
2021/03/28 12:18:50;;;;;;;9.38;1.65;;;;;;;14.60;34.13;100274.50;5091824;28;20381;-81
2021/03/28 12:21:43;;;;;;;3.15;1.20;;;;;;;14.60;32.01;100271.75;5085410;28;20139;-81
2021/03/28 12:24:12;;;;;;;2.50;1.40;;;;;;;14.66;32.28;100279.25;5092184;28;20488;-81
2021/03/28 12:26:53;;;;;;;6.50;1.33;;;;;;;14.63;31.99;100277.78;5091375;28;20051;-81
2021/03/28 12:29:41;;;;;;;3.92;1.33;;;;;;;14.61;31.77;100287.19;5092170;28;20048;-81
2021/03/28 12:32:57;;;;;;;8.98;1.98;;;;;;;14.55;32.08;100277.78;5091740;28;20056;-80
2021/03/28 12:35:40;;;;;;;4.60;1.30;;;;;;;14.68;32.50;100269.84;5088989;28;20135;-81
2021/03/28 12:38:33;;;;;;;3.17;1.10;;;;;;;14.80;32.44;100263.94;5069021;28;20496;-81
2021/03/28 12:41:14;;;;;;;4.20;1.42;;;;;;;14.71;33.13;100275.97;5088341;28;20508;-81
2021/03/28 12:43:45;;;;;;;7.63;1.50;;;;;;;14.42;32.80;100259.28;5091275;28;20048;-81
2021/03/28 12:47:00;;;;;;;3.88;1.00;;;;;;;14.42;34.11;100272.09;5091331;28;20051;-81
2021/03/28 12:49:33;;;;;;;6.25;1.40;;;;;;;14.45;33.39;100260.78;5071236;28;20045;-81
2021/03/28 12:52:19;;;;;;;9.60;1.23;;;;;;;14.66;33.43;100238.22;5069461;28;20102;-81
2021/03/28 12:55:16;;;;;;;5.25;1.50;;;;;;;15.13;34.03;100261.72;5066891;28;20048;-81
2021/03/28 12:57:46;;;;;;;7.68;1.55;;;;;;;14.98;32.19;100258.09;5087905;28;20561;-81
2021/03/28 13:00:21;;;;;;;6.85;1.33;;;;;;;15.01;33.17;100250.38;5091276;28;20063;-81
2021/03/28 13:02:49;;;;;;;6.25;1.25;;;;;;;15.07;32.72;100226.88;5092512;28;20048;-81
2021/03/28 13:05:28;;;;;;;7.10;1.50;;;;;;;15.11;34.14;100239.13;5084214;28;20408;-82
2021/03/28 13:07:56;;;;;;;4.35;1.30;;;;;;;15.02;32.57;100249.34;5091940;28;20044;-81
2021/03/28 13:10:29;;;;;;;2.53;1.25;;;;;;;15.14;33.80;100221.47;5091745;28;20055;-81
2021/03/28 13:13:00;;;;;;;2.50;1.08;;;;;;;15.20;32.76;100213.38;5072715;28;20052;-81
2021/03/28 13:15:37;;;;;;;5.35;1.30;;;;;;;15.36;32.51;100228.72;5076047;28;20495;-81
2021/03/28 13:18:17;;;;;;;7.07;1.50;;;;;;;15.38;32.57;100223.06;5073705;28;20044;-81
2021/03/28 13:20:47;;;;;;;6.75;1.48;;;;;;;15.37;32.01;100211.25;5091506;28;20078;-81
2021/03/28 13:23:31;;;;;;;;;;;;;;;15.22;31.99;100211.28;5089545;28;20052;-81